createdAt,value
2022-09-02T00:02:08.752Z,99944.41
2022-09-02T00:04:36.627Z,99938.53
2022-09-02T00:07:04.346Z,99930.25
2022-09-02T00:09:32.067Z,99933.84
2022-09-02T00:11:59.777Z,99928.34
2022-09-02T00:18:36.063Z,99929.69
2022-09-02T00:21:04.516Z,99924.56
2022-09-02T00:23:32.315Z,99929.25
2022-09-02T00:26:00.144Z,99930.56
2022-09-02T00:28:27.805Z,99919.81
2022-09-02T00:30:55.515Z,99921.84
2022-09-02T00:33:23.750Z,99921.50
2022-09-02T00:35:52.928Z,99914.00
2022-09-02T00:38:20.602Z,99909.69
2022-09-02T00:40:50.134Z,99912.38
2022-09-02T00:43:25.188Z,99902.59
2022-09-02T00:45:54.272Z,99903.31
2022-09-02T00:48:22.065Z,99912.03
2022-09-02T00:50:50.983Z,99908.88
2022-09-02T00:53:20.912Z,99916.78
2022-09-02T00:55:51.847Z,99904.53
2022-09-02T00:58:23.336Z,99912.09
2022-09-02T01:00:56.608Z,99910.53
2022-09-02T01:03:28.228Z,99896.66
2022-09-02T01:05:58.045Z,99906.63
2022-09-02T01:08:30.068Z,99907.03
2022-09-02T01:10:58.131Z,99903.47
2022-09-02T01:13:28.854Z,99897.31
2022-09-02T01:16:03.266Z,99896.91
2022-09-02T01:18:32.071Z,99890.88
2022-09-02T01:21:00.846Z,99901.63
2022-09-02T01:23:34.957Z,99888.56
2022-09-02T01:26:03.723Z,99885.69
2022-09-02T01:28:33.420Z,99893.22
2022-09-02T01:31:01.708Z,99897.88
2022-09-02T01:33:30.764Z,99892.88
2022-09-02T01:35:59.697Z,99892.56
2022-09-02T01:38:27.975Z,99896.47
2022-09-02T01:40:58.090Z,99888.63
2022-09-02T01:43:27.879Z,99885.09
2022-09-02T01:45:58.710Z,99888.31
2022-09-02T01:48:29.622Z,99887.41
2022-09-02T01:50:59.420Z,99897.72
2022-09-02T01:53:28.076Z,99894.16
2022-09-02T01:55:57.487Z,99893.38
2022-09-02T01:58:25.251Z,99885.47
2022-09-02T02:00:53.571Z,99895.78
2022-09-02T02:03:21.586Z,99892.50
2022-09-02T02:05:50.440Z,99885.06
2022-09-02T02:08:20.671Z,99888.66
2022-09-02T02:10:48.564Z,99885.63
2022-09-02T02:13:17.751Z,99884.88
2022-09-02T02:15:45.882Z,99887.66
2022-09-02T02:18:13.715Z,99884.16
2022-09-02T02:20:42.875Z,99885.34
2022-09-02T02:23:12.845Z,99886.97
2022-09-02T02:25:41.725Z,99889.78
2022-09-02T02:28:09.379Z,99881.81
2022-09-02T02:30:39.474Z,99883.38
2022-09-02T02:33:10.315Z,99885.78
2022-09-02T02:35:38.206Z,99887.00
2022-09-02T02:38:06.248Z,99879.94
2022-09-02T02:40:34.022Z,99884.22
2022-09-02T02:43:01.937Z,99862.25
2022-09-02T02:45:30.329Z,99885.03
2022-09-02T02:47:59.747Z,99878.00
2022-09-02T02:50:27.855Z,99876.38
2022-09-02T02:52:56.350Z,99880.31
2022-09-02T02:55:26.492Z,99877.59
2022-09-02T02:57:55.018Z,99882.78
2022-09-02T03:00:25.536Z,99880.78
2022-09-02T03:02:57.015Z,99873.63
2022-09-02T03:05:27.120Z,99869.69
2022-09-02T03:07:55.346Z,99872.50
2022-09-02T03:10:24.168Z,99873.22
2022-09-02T03:12:52.439Z,99864.94
2022-09-02T03:15:22.119Z,99872.81
2022-09-02T03:17:53.118Z,99873.19
2022-09-02T03:20:22.451Z,99851.53
2022-09-02T03:22:57.511Z,99865.97
2022-09-02T03:25:26.580Z,99824.34
2022-09-02T03:27:57.757Z,99865.69
2022-09-02T03:30:28.010Z,99831.16
2022-09-02T03:33:03.745Z,99871.59
2022-09-02T03:35:34.550Z,99865.38
2022-09-02T03:38:03.646Z,99862.19
2022-09-02T03:40:31.694Z,99860.06
2022-09-02T03:43:00.600Z,99860.06
2022-09-02T03:45:30.809Z,99860.50
2022-09-02T03:48:01.065Z,99859.69
2022-09-02T03:50:34.720Z,99860.84
2022-09-02T03:53:05.200Z,99855.78
2022-09-02T03:55:33.440Z,99859.63
2022-09-02T03:58:06.548Z,99856.91
2022-09-02T04:00:38.367Z,99854.97
2022-09-02T04:03:06.769Z,99858.09
2022-09-02T04:05:35.180Z,99866.53
2022-09-02T04:08:03.135Z,99850.69
2022-09-02T04:10:32.673Z,99852.25
2022-09-02T04:13:00.400Z,99855.44
2022-09-02T04:15:28.157Z,99853.94
2022-09-02T04:17:57.046Z,99846.41
2022-09-02T04:20:25.129Z,99852.31
2022-09-02T04:22:52.858Z,99850.81
2022-09-02T04:25:27.603Z,99853.19
2022-09-02T04:27:57.918Z,99860.69
2022-09-02T04:30:25.917Z,99865.44
2022-09-02T04:32:54.436Z,99860.66
2022-09-02T04:35:22.254Z,99855.09
2022-09-02T04:37:50.830Z,99856.72
2022-09-02T04:40:19.242Z,99859.88
2022-09-02T04:42:48.522Z,99858.41
2022-09-02T04:45:18.355Z,99855.22
2022-09-02T04:47:47.888Z,99863.16
2022-09-02T04:50:17.646Z,99860.03
2022-09-02T04:52:59.951Z,99861.66
2022-09-02T04:55:28.907Z,99860.03
2022-09-02T04:57:58.849Z,99863.16
2022-09-02T05:00:30.679Z,99872.69
2022-09-02T05:02:59.990Z,99861.97
2022-09-02T05:05:33.849Z,99876.63
2022-09-02T05:08:04.794Z,99868.72
2022-09-02T05:10:35.193Z,99865.53
2022-09-02T05:13:06.566Z,99873.88
2022-09-02T05:15:43.508Z,99864.78
2022-09-02T05:18:12.344Z,99866.34
2022-09-02T05:20:43.599Z,99872.25
2022-09-02T05:23:14.332Z,99812.16
2022-09-02T05:25:45.858Z,99871.91
2022-09-02T05:28:13.889Z,99875.84
2022-09-02T05:30:44.697Z,99872.69
2022-09-02T05:33:15.112Z,99875.84
2022-09-02T05:35:49.785Z,99886.13
2022-09-02T05:38:18.510Z,99879.78
2022-09-02T05:40:48.499Z,99884.13
2022-09-02T05:43:19.065Z,99871.78
2022-09-02T05:45:50.339Z,99883.69
2022-09-02T05:48:36.829Z,99870.63
2022-09-02T05:51:08.408Z,99871.75
2022-09-02T05:53:39.357Z,99873.22
2022-09-02T05:56:09.202Z,99878.38
2022-09-02T05:58:37.950Z,99875.50
2022-09-02T06:01:10.673Z,99879.28
2022-09-02T06:03:40.290Z,99881.53
2022-09-02T06:06:13.901Z,99882.31
2022-09-02T06:08:46.289Z,99880.94
2022-09-02T06:11:16.907Z,99880.81
2022-09-02T06:13:48.670Z,99860.69
2022-09-02T06:16:22.386Z,99887.59
2022-09-02T06:18:51.764Z,99885.50
2022-09-02T06:21:20.830Z,99877.47
2022-09-02T06:23:55.029Z,99875.69
2022-09-02T06:26:23.885Z,99878.13
2022-09-02T06:28:53.294Z,99875.53
2022-09-02T06:31:24.685Z,99883.94
2022-09-02T06:33:58.307Z,99881.81
2022-09-02T06:36:30.936Z,99805.88
2022-09-02T06:39:01.566Z,99883.41
2022-09-02T06:41:35.467Z,99855.06
2022-09-02T06:44:09.976Z,99876.56
2022-09-02T06:46:43.602Z,99878.47
2022-09-02T06:49:17.330Z,99870.34
2022-09-02T06:51:51.591Z,99863.72
2022-09-02T06:54:22.178Z,99870.72
2022-09-02T06:56:56.981Z,99884.81
2022-09-02T06:59:28.529Z,99871.34
2022-09-02T07:02:03.869Z,99877.88
2022-09-02T07:04:53.225Z,99873.09
2022-09-02T07:07:27.523Z,99864.19
2022-09-02T07:10:06.443Z,99860.63
2022-09-02T07:12:38.938Z,99870.56
2022-09-02T07:15:12.778Z,99869.94
2022-09-02T07:17:49.546Z,99866.72
2022-09-02T07:20:28.441Z,99869.13
2022-09-02T07:23:02.833Z,99865.91
2022-09-02T07:25:41.142Z,99869.63
2022-09-02T07:28:13.709Z,99871.16
2022-09-02T07:30:46.030Z,99870.16
2022-09-02T07:33:20.278Z,99875.22
2022-09-02T07:35:49.875Z,99879.03
2022-09-02T07:38:19.159Z,99867.72
2022-09-02T07:40:48.971Z,99863.91
2022-09-02T07:43:18.471Z,99864.91
2022-09-02T07:45:48.887Z,99861.16
2022-09-02T07:48:19.513Z,99867.06
2022-09-02T07:50:50.863Z,99859.75
2022-09-02T07:53:20.955Z,99867.53
2022-09-02T07:55:50.525Z,99853.78
2022-09-02T07:58:22.290Z,99859.00
2022-09-02T08:00:54.754Z,99860.84
2022-09-02T08:03:25.939Z,99846.94
2022-09-02T08:05:59.719Z,99858.09
2022-09-02T08:08:28.879Z,99854.31
2022-09-02T08:10:57.498Z,99854.03
2022-09-02T08:13:28.101Z,99859.31
2022-09-02T08:15:56.703Z,99853.06
2022-09-02T08:18:27.587Z,99857.28
2022-09-02T08:20:56.170Z,99860.53
2022-09-02T08:23:37.021Z,99859.06
2022-09-02T08:26:07.229Z,99861.94
2022-09-02T08:28:35.080Z,99856.22
2022-09-02T08:31:06.328Z,99863.84
2022-09-02T08:33:39.194Z,99867.00
2022-09-02T08:36:11.698Z,99855.13
2022-09-02T08:38:39.601Z,99852.13
2022-09-02T08:41:14.859Z,99844.97
2022-09-02T08:43:46.149Z,99841.56
2022-09-02T08:46:18.365Z,99851.06
2022-09-02T08:48:52.821Z,99848.00
2022-09-02T08:51:25.029Z,99847.41
2022-09-02T08:54:03.550Z,99843.66
2022-09-02T08:56:33.386Z,99848.63
2022-09-02T08:59:03.956Z,99853.31
2022-09-02T09:01:44.298Z,99842.38
2022-09-02T09:04:20.134Z,99839.75
2022-09-02T09:07:05.001Z,99842.38
2022-09-02T09:09:45.785Z,99837.38
2022-09-02T09:12:19.846Z,99842.03
2022-09-02T09:14:55.865Z,99835.47
2022-09-02T09:17:31.734Z,99844.69
2022-09-02T09:20:12.503Z,99830.78
2022-09-02T09:22:42.819Z,99833.56
2022-09-02T09:25:15.364Z,99822.84
2022-09-02T09:27:46.386Z,99829.88
2022-09-02T09:30:16.261Z,99830.97
2022-09-02T09:32:48.839Z,99831.75
2022-09-02T09:35:19.771Z,99824.78
2022-09-02T09:37:50.034Z,99828.66
2022-09-02T09:40:32.166Z,99817.03
2022-09-02T09:43:15.608Z,99814.69
2022-09-02T09:45:46.991Z,99831.38
2022-09-02T09:48:23.934Z,99816.31
2022-09-02T09:51:17.511Z,99811.56
2022-09-02T09:53:46.419Z,99807.19
2022-09-02T09:56:37.350Z,99790.16
2022-09-02T09:59:29.921Z,99802.63
2022-09-02T10:01:59.486Z,99802.09
2022-09-02T10:04:46.457Z,99811.09
2022-09-02T10:07:35.820Z,99803.84
2022-09-02T10:10:17.520Z,99802.19
2022-09-02T10:12:46.805Z,99792.31
2022-09-02T10:15:25.450Z,99780.44
2022-09-02T10:18:01.820Z,99787.13
2022-09-02T10:21:04.930Z,99795.16
2022-09-02T10:23:52.677Z,99796.47
2022-09-02T10:26:27.120Z,99792.00
2022-09-02T10:29:23.418Z,99787.19
2022-09-02T10:32:08.676Z,99793.25
2022-09-02T10:34:47.255Z,99784.25
2022-09-02T10:37:20.951Z,99783.09
2022-09-02T10:40:10.672Z,99734.88
2022-09-02T10:42:48.523Z,99784.84
2022-09-02T10:45:25.359Z,99782.28
2022-09-02T10:48:08.422Z,99778.56
2022-09-02T10:50:43.757Z,99775.09
2022-09-02T10:53:27.308Z,99764.88
2022-09-02T10:56:03.762Z,99767.88
2022-09-02T10:58:42.726Z,99772.41
2022-09-02T11:01:20.426Z,99768.38
2022-09-02T11:04:02.565Z,99763.34
2022-09-02T11:06:59.121Z,99747.88
2022-09-02T11:09:37.365Z,99747.31
2022-09-02T11:12:16.170Z,99751.19
2022-09-02T11:14:56.182Z,99745.56
2022-09-02T11:17:36.239Z,99725.09
2022-09-02T11:20:13.950Z,99727.88
2022-09-02T11:22:59.971Z,99725.41
2022-09-02T11:25:35.669Z,99737.50
2022-09-02T11:28:23.326Z,99725.28
2022-09-02T11:30:56.843Z,99729.44
2022-09-02T11:33:33.082Z,99718.72
2022-09-02T11:36:02.643Z,99720.91
2022-09-02T11:38:36.830Z,99715.13
2022-09-02T11:41:36.927Z,99698.75
2022-09-02T11:44:29.388Z,99703.53
2022-09-02T11:47:10.031Z,99712.56
2022-09-02T11:50:04.334Z,99699.31
2022-09-02T11:52:52.317Z,99713.28
2022-09-02T11:55:25.191Z,99705.97
2022-09-02T11:57:57.633Z,99697.44
2022-09-02T12:00:32.561Z,99701.28
2022-09-02T12:03:37.811Z,99693.31
2022-09-02T12:06:09.622Z,99690.44
2022-09-02T12:09:11.079Z,99691.78
2022-09-02T12:11:50.565Z,99698.25
2022-09-02T12:15:05.924Z,99697.56
2022-09-02T12:17:46.234Z,99691.63
2022-09-02T12:20:51.618Z,99677.97
2022-09-02T12:23:56.756Z,99678.50
2022-09-02T12:26:25.247Z,99683.19
2022-09-02T12:29:12.441Z,99667.31
2022-09-02T12:31:47.031Z,99675.50
2022-09-02T12:34:53.471Z,99667.94
2022-09-02T12:37:51.849Z,99670.13
2022-09-02T12:40:32.574Z,99661.00
2022-09-02T12:43:07.233Z,99650.38
2022-09-02T12:45:45.276Z,99651.84
2022-09-02T12:48:24.966Z,99649.47
2022-09-02T12:51:08.716Z,99643.81
2022-09-02T12:53:43.036Z,99643.69
2022-09-02T12:56:20.991Z,99652.72
2022-09-02T12:58:52.605Z,99650.19
2022-09-02T13:01:31.034Z,99630.22
2022-09-02T13:04:27.733Z,99629.78
2022-09-02T13:07:41.054Z,99630.28
2022-09-02T13:10:33.651Z,99558.81
2022-09-02T13:13:26.613Z,99620.56
2022-09-02T13:16:18.790Z,99627.13
2022-09-02T13:19:19.439Z,99626.72
2022-09-02T13:22:17.523Z,99619.25
2022-09-02T13:25:25.470Z,99610.00
2022-09-02T13:28:37.136Z,99604.38
2022-09-02T13:31:14.451Z,99601.53
2022-09-02T13:33:43.453Z,99593.41
2022-09-02T13:36:26.210Z,99595.75
2022-09-02T13:38:56.916Z,99593.34
2022-09-02T13:41:32.734Z,99574.69
2022-09-02T13:44:11.486Z,99582.81
2022-09-02T13:46:45.845Z,99569.66
2022-09-02T13:49:25.143Z,99577.09
2022-09-02T13:51:58.545Z,99576.34
2022-09-02T13:54:35.521Z,99570.63
2022-09-02T13:57:08.485Z,99574.97
2022-09-02T13:59:47.400Z,99564.41
2022-09-02T14:02:25.330Z,99565.72
2022-09-02T14:04:58.731Z,99552.13
2022-09-02T14:07:33.268Z,99559.75
2022-09-02T14:10:08.763Z,99556.47
2022-09-02T14:12:38.834Z,99554.31
2022-09-02T14:15:11.345Z,99544.84
2022-09-02T14:17:39.845Z,99548.56
2022-09-02T14:20:17.706Z,99542.72
2022-09-02T14:22:55.786Z,99529.97
2022-09-02T14:25:27.570Z,99527.47
2022-09-02T14:28:02.065Z,99520.44
2022-09-02T14:30:34.573Z,99527.03
2022-09-02T14:33:20.145Z,99529.09
2022-09-02T14:36:01.487Z,99513.63
2022-09-02T14:38:36.704Z,99504.06
2022-09-02T14:41:12.742Z,99506.66
2022-09-02T14:43:47.339Z,99496.03
2022-09-02T14:46:25.362Z,99507.50
2022-09-02T14:49:01.226Z,99515.56
2022-09-02T14:51:35.406Z,99494.44
2022-09-02T14:54:03.422Z,99510.28
2022-09-02T14:56:50.794Z,99499.31
2022-09-02T14:59:19.018Z,99495.91
2022-09-02T15:01:51.503Z,99498.34
2022-09-02T15:04:20.256Z,99491.03
2022-09-02T15:06:48.727Z,99491.22
2022-09-02T15:09:17.405Z,99468.91
2022-09-02T15:11:49.062Z,99489.13
2022-09-02T15:14:16.843Z,99479.44
2022-09-02T15:16:44.503Z,99479.91
2022-09-02T15:19:13.593Z,99480.22
2022-09-02T15:21:41.454Z,99479.47
2022-09-02T15:24:09.136Z,99476.16
2022-09-02T15:26:36.862Z,99478.56
2022-09-02T15:29:04.943Z,99478.00
2022-09-02T15:31:32.851Z,99474.38
2022-09-02T15:34:00.876Z,99469.13
2022-09-02T15:36:31.295Z,99478.84
2022-09-02T15:39:00.549Z,99472.53
2022-09-02T15:41:31.397Z,99481.63
2022-09-02T15:44:00.549Z,99479.00
2022-09-02T15:46:36.945Z,99479.56
2022-09-02T15:49:07.226Z,99460.34
2022-09-02T15:51:38.480Z,99473.94
2022-09-02T15:54:08.170Z,99468.09
2022-09-02T15:56:37.434Z,99459.06
2022-09-02T15:59:10.142Z,99469.47
2022-09-02T16:01:39.967Z,99477.16
2022-09-02T16:04:08.622Z,99471.00
2022-09-02T16:06:39.925Z,99470.06
2022-09-02T16:09:08.347Z,99468.38
2022-09-02T16:11:38.482Z,99462.81
2022-09-02T16:14:06.150Z,99469.75
2022-09-02T16:16:35.809Z,99463.66
2022-09-02T16:19:05.730Z,99478.66
2022-09-02T16:21:33.407Z,99476.28
2022-09-02T16:24:02.645Z,99473.81
2022-09-02T16:26:31.682Z,99470.50
2022-09-02T16:29:01.469Z,99472.22
2022-09-02T16:31:31.251Z,99474.38
2022-09-02T16:34:00.748Z,99472.41
2022-09-02T16:36:33.303Z,99465.09
2022-09-02T16:39:03.258Z,99468.19
2022-09-02T16:41:34.477Z,99475.75
2022-09-02T16:44:05.075Z,99471.00
2022-09-02T16:46:33.334Z,99471.97
2022-09-02T16:49:01.013Z,99482.75
2022-09-02T16:51:30.091Z,99474.97
2022-09-02T16:53:59.604Z,99474.97
2022-09-02T16:56:30.554Z,99466.47
2022-09-02T16:59:02.835Z,99465.47
2022-09-02T17:01:32.599Z,99402.13
2022-09-02T17:04:01.290Z,99427.00
2022-09-02T17:06:29.107Z,99464.63
2022-09-02T17:08:57.203Z,99461.59
2022-09-02T17:11:26.946Z,99468.53
2022-09-02T17:13:57.416Z,99473.56
2022-09-02T17:16:28.258Z,99468.13
2022-09-02T17:18:56.815Z,99466.31
2022-09-02T17:21:27.635Z,99462.09
2022-09-02T17:23:56.007Z,99463.91
2022-09-02T17:26:26.870Z,99467.81
2022-09-02T17:28:57.521Z,99467.06
2022-09-02T17:31:27.498Z,99453.91
2022-09-02T17:33:56.983Z,99465.81
2022-09-02T17:36:25.936Z,99454.19
2022-09-02T17:39:16.153Z,99454.47
2022-09-02T17:42:05.170Z,99461.81
2022-09-02T17:44:55.959Z,99463.84
2022-09-02T17:50:31.726Z,99460.84
2022-09-02T17:53:19.735Z,99452.72
2022-09-02T17:56:24.659Z,99455.78
2022-09-02T17:59:20.389Z,99455.44
2022-09-02T18:02:29.468Z,99449.63
2022-09-02T18:05:24.312Z,99450.47
2022-09-02T18:08:28.104Z,99451.81
2022-09-02T18:11:17.653Z,99455.19
2022-09-02T18:14:17.966Z,99447.69
2022-09-02T18:17:20.372Z,99450.44
2022-09-02T18:20:13.347Z,99449.47
2022-09-02T18:23:21.053Z,99450.31
2022-09-02T18:26:24.187Z,99449.97
2022-09-02T18:29:24.769Z,99447.84
2022-09-02T18:32:24.142Z,99445.50
2022-09-02T18:35:22.625Z,99451.53
2022-09-02T18:38:19.579Z,99456.72
2022-09-02T18:41:19.998Z,99448.28
2022-09-02T18:44:22.808Z,99446.94
2022-09-02T18:47:15.466Z,99451.34
2022-09-02T18:50:07.051Z,99459.53
2022-09-02T18:52:59.429Z,99455.09
2022-09-02T18:55:48.771Z,99455.97
2022-09-02T18:58:43.553Z,99453.09
2022-09-02T19:01:39.440Z,99455.22
2022-09-02T19:04:29.561Z,99456.44
2022-09-02T19:07:38.364Z,99464.03
2022-09-02T19:10:26.384Z,99462.50
2022-09-02T19:13:15.097Z,99465.72
2022-09-02T19:16:05.041Z,99462.94
2022-09-02T19:18:54.313Z,99462.94
2022-09-02T19:21:47.300Z,99465.63
2022-09-02T19:24:42.638Z,99468.72
2022-09-02T19:27:34.099Z,99477.44
2022-09-02T19:30:23.297Z,99469.25
2022-09-02T19:33:14.620Z,99467.00
2022-09-02T19:36:02.931Z,99460.91
2022-09-02T19:38:51.058Z,99476.97
2022-09-02T19:41:40.454Z,99478.19
2022-09-02T19:44:28.572Z,99469.84
2022-09-02T19:50:24.986Z,99464.94
2022-09-02T19:53:19.183Z,99469.63
2022-09-02T19:56:08.290Z,99471.75
2022-09-02T19:58:57.899Z,99470.97
2022-09-02T20:01:46.399Z,99471.63
2022-09-02T20:04:34.582Z,99474.84
2022-09-02T20:07:22.630Z,99473.75
2022-09-02T20:10:11.760Z,99457.16
2022-09-02T20:12:59.977Z,99483.13
2022-09-02T20:15:49.770Z,99476.00
2022-09-02T20:18:37.942Z,99467.97
2022-09-02T20:21:28.495Z,99471.88
2022-09-02T20:24:22.957Z,99466.94
2022-09-02T20:27:21.807Z,99470.19
2022-09-02T20:30:12.780Z,99471.75
2022-09-02T20:33:10.449Z,99464.72
2022-09-02T20:36:12.400Z,99467.50
2022-09-02T20:39:15.100Z,99456.47
2022-09-02T20:42:20.323Z,99457.47
2022-09-02T20:45:14.634Z,99459.16
2022-09-02T20:48:16.016Z,99459.03
2022-09-02T20:51:11.298Z,99430.75
2022-09-02T20:54:15.494Z,99456.94
2022-09-02T20:57:17.828Z,99457.06
2022-09-02T21:00:10.444Z,99455.28
2022-09-02T21:03:03.192Z,99459.16
2022-09-02T21:05:58.101Z,99456.38
2022-09-02T21:09:00.379Z,99451.69
2022-09-02T21:11:55.981Z,99461.97
2022-09-02T21:14:47.593Z,99452.81
2022-09-02T21:17:46.428Z,99436.78
2022-09-02T21:20:44.699Z,99439.69
2022-09-02T21:23:39.646Z,99438.91
2022-09-02T21:26:39.837Z,99432.44
2022-09-02T21:29:33.414Z,99436.47
2022-09-02T21:32:30.083Z,99440.78
2022-09-02T21:35:20.877Z,99440.78
2022-09-02T21:38:13.290Z,99444.34
2022-09-02T21:41:27.298Z,99449.47
2022-09-02T21:44:20.345Z,99452.25
2022-09-02T21:47:19.350Z,99449.72
2022-09-02T21:50:12.752Z,99442.91
2022-09-02T21:53:09.490Z,99429.41
2022-09-02T21:56:12.007Z,99448.03
2022-09-02T21:59:25.924Z,99446.28
2022-09-02T22:02:21.826Z,99444.47
2022-09-02T22:05:19.851Z,99435.44
2022-09-02T22:08:15.542Z,99449.38
2022-09-02T22:11:10.058Z,99444.66
2022-09-02T22:14:01.252Z,99437.88
2022-09-02T22:16:58.894Z,99433.53
2022-09-02T22:19:47.096Z,99444.34
2022-09-02T22:22:39.285Z,99439.19
2022-09-02T22:25:27.953Z,99440.09
2022-09-02T22:28:21.918Z,99429.06
2022-09-02T22:31:16.052Z,99428.53
2022-09-02T22:34:08.832Z,99405.00
2022-09-02T22:37:01.485Z,99435.53
2022-09-02T22:39:51.985Z,99430.75
2022-09-02T22:42:41.576Z,99428.53
2022-09-02T22:46:01.054Z,99419.94
2022-09-02T22:49:14.310Z,99418.69
2022-09-02T22:52:28.031Z,99419.94
2022-09-02T22:55:21.416Z,99400.00
2022-09-02T22:58:26.257Z,99423.81
2022-09-02T23:01:20.880Z,99428.06
2022-09-02T23:04:33.499Z,99421.38
2022-09-02T23:07:24.161Z,99415.81
2022-09-02T23:10:20.973Z,99417.91
2022-09-02T23:13:14.672Z,99422.72
2022-09-02T23:16:12.108Z,99422.94
2022-09-02T23:19:14.158Z,99429.28
2022-09-02T23:22:11.847Z,99421.19
2022-09-02T23:25:16.054Z,99427.09
2022-09-02T23:28:16.798Z,99421.81
2022-09-02T23:31:12.732Z,99424.94
2022-09-02T23:34:14.468Z,99414.03
2022-09-02T23:37:12.167Z,99411.47
2022-09-02T23:40:11.426Z,99405.47
2022-09-02T23:42:59.702Z,99410.38
2022-09-02T23:45:48.771Z,99358.69
2022-09-02T23:48:45.410Z,99416.59
2022-09-02T23:51:40.954Z,99414.81
2022-09-02T23:54:50.496Z,99408.09
2022-09-02T23:57:53.518Z,99401.44
